Terminal Aerodrome Forecast
Issued by NWS

Home | Current Version | Previous Version | Text Only | Print | Product List | Glossary On
Versions: 1 2 3 4 5 6 7 8 9 10 11 12 13 14 15 16 17 18
000
FTUS45 KSLC 240113 AAA
TAFBCE
TAF AMD
KBCE 240113Z 2401/2424 31013G23KT P6SM SCT100
      TEMPO 2401/2403 3SM FU
     FM240400 31007KT P6SM SKC
     FM241800 31012KT P6SM FEW090=

USA.gov is the U.S. government's official web portal to all federal, state and local government web resources and services.